Terminal Aerodrome Forecast
Issued by NWS

Home | Current Version | Previous Version | Graphics & Text | Print | Product List | Glossary On
Versions: 1 2 3 4 5 6 7 8 9 10 11 12 13
000
FTUS42 KMHX 252330
TAFISO
TAF
KISO 252330Z 2600/2624 VRB04KT P6SM SCT045
     FM260500 08005KT P6SM FEW025 SCT250
     FM262100 08006KT P6SM SCT045
      AMD LTD TO CLD VIS AND WIND=

USA.gov is the U.S. government's official web portal to all federal, state and local government web resources and services.